Time,TemperatureF,DewpointF,PressureIn,WindDirection,WindDirectionDegrees,WindSpeedMPH,WindSpeedGustMPH,Humidity,HourlyPrecipIn,Conditions,Clouds,dailyrainin,SoftwareType,DateUTC
2013-01-20 00:04:00,50.0,28.0,-100.00,SSW,192,9.0,14.0,42,0.00,,,-99.99,,2013-01-20 05:04:00,
2013-01-20 00:12:00,50.0,28.0,-100.00,WSW,240,9.0,14.0,42,0.00,,,-99.99,,2013-01-20 05:12:00,
2013-01-20 00:23:00,50.0,30.0,-100.00,WNW,293,7.0,14.0,44,0.00,,,-99.99,,2013-01-20 05:23:00,
2013-01-20 00:33:00,49.0,28.0,-100.00,WSW,251,12.0,17.0,44,0.00,,,-99.99,,2013-01-20 05:33:00,
2013-01-20 00:43:00,50.0,30.0,-100.00,SW,232,9.0,17.0,46,0.00,,,-99.99,,2013-01-20 05:43:00,
2013-01-20 00:53:00,49.0,30.0,-100.00,SSW,207,15.0,17.0,45,0.00,,,-99.99,,2013-01-20 05:53:00,
2013-01-20 01:02:00,50.0,32.0,-100.00,SW,221,12.0,17.0,47,0.00,,,-99.99,,2013-01-20 06:02:00,
2013-01-20 01:12:00,49.0,32.0,-100.00,SW,224,11.0,17.0,49,0.00,,,-99.99,,2013-01-20 06:12:00,
2013-01-20 01:22:00,49.0,32.0,-100.00,West,261,13.0,17.0,49,0.00,,,-99.99,,2013-01-20 06:22:00,
2013-01-20 01:33:00,49.0,32.0,-100.00,WNW,283,12.0,17.0,50,0.00,,,-99.99,,2013-01-20 06:33:00,
2013-01-20 01:43:00,49.0,32.0,-100.00,WSW,247,12.0,17.0,51,0.00,,,-99.99,,2013-01-20 06:43:00,
2013-01-20 01:52:00,48.0,32.0,-100.00,WSW,248,13.0,17.0,51,0.00,,,-99.99,,2013-01-20 06:52:00,
2013-01-20 02:02:00,48.0,32.0,-100.00,WSW,254,17.0,21.0,53,0.00,,,-99.99,,2013-01-20 07:02:00,
2013-01-20 02:12:00,49.0,32.0,-100.00,WNW,302,14.0,21.0,53,0.00,,,-99.99,,2013-01-20 07:12:00,
2013-01-20 02:22:00,47.0,32.0,-100.00,SSW,210,12.0,21.0,53,0.00,,,-99.99,,2013-01-20 07:22:00,
2013-01-20 02:32:00,48.0,32.0,-100.00,West,275,12.0,21.0,53,0.00,,,-99.99,,2013-01-20 07:32:00,
2013-01-20 02:42:00,49.0,32.0,-100.00,WNW,285,9.0,21.0,55,0.00,,,-99.99,,2013-01-20 07:42:00,
2013-01-20 02:52:00,48.0,32.0,-100.00,West,265,10.0,21.0,54,0.00,,,-99.99,,2013-01-20 07:52:00,
2013-01-20 03:02:00,47.0,32.0,-100.00,West,273,12.0,21.0,55,0.00,,,-99.99,,2013-01-20 08:02:00,
2013-01-20 03:12:00,47.0,32.0,-100.00,WNW,289,15.0,21.0,55,0.00,,,-99.99,,2013-01-20 08:12:00,
2013-01-20 03:22:00,46.0,32.0,-100.00,West,273,13.0,21.0,55,0.00,,,-99.99,,2013-01-20 08:22:00,
2013-01-20 03:32:00,47.0,32.0,-100.00,WSW,240,14.0,21.0,55,0.00,,,-99.99,,2013-01-20 08:32:00,
2013-01-20 03:42:00,46.0,32.0,-100.00,West,280,15.0,21.0,56,0.00,,,-99.99,,2013-01-20 08:42:00,
2013-01-20 03:52:00,47.0,32.0,-100.00,SSW,211,19.0,24.0,55,0.00,,,-99.99,,2013-01-20 08:52:00,
2013-01-20 04:02:00,46.0,32.0,-100.00,West,266,17.0,24.0,56,0.00,,,-99.99,,2013-01-20 09:02:00,
2013-01-20 04:12:00,46.0,32.0,-100.00,West,272,18.0,24.0,58,0.00,,,-99.99,,2013-01-20 09:12:00,
2013-01-20 04:22:00,44.0,30.0,-100.00,West,273,19.0,24.0,55,0.00,,,-99.99,,2013-01-20 09:22:00,
2013-01-20 04:33:00,43.0,27.0,-100.00,West,265,24.0,30.0,51,0.00,,,-99.99,,2013-01-20 09:33:00,
2013-01-20 04:42:00,43.0,27.0,-100.00,West,272,19.0,30.0,49,0.00,,,-99.99,,2013-01-20 09:42:00,
2013-01-20 04:52:00,43.0,27.0,-100.00,WNW,302,24.0,30.0,49,0.00,,,-99.99,,2013-01-20 09:52:00,
2013-01-20 05:02:00,42.0,27.0,-100.00,WSW,256,20.0,30.0,51,0.00,,,-99.99,,2013-01-20 10:02:00,
2013-01-20 05:12:00,42.0,27.0,-100.00,WNW,285,19.0,30.0,51,0.00,,,-99.99,,2013-01-20 10:12:00,
2013-01-20 05:23:00,41.0,25.0,-100.00,WSW,238,23.0,30.0,49,0.00,,,-99.99,,2013-01-20 10:23:00,
2013-01-20 05:32:00,40.0,23.0,-100.00,NNW,327,23.0,30.0,49,0.00,,,-99.99,,2013-01-20 10:32:00,
2013-01-20 05:42:00,40.0,23.0,-100.00,West,280,23.0,30.0,50,0.00,,,-99.99,,2013-01-20 10:42:00,
2013-01-20 05:52:00,39.0,25.0,-100.00,WNW,297,18.0,30.0,53,0.00,,,-99.99,,2013-01-20 10:52:00,
2013-01-20 06:03:00,37.0,23.0,-100.00,West,272,20.0,30.0,53,0.00,,,-99.99,,2013-01-20 11:03:00,
2013-01-20 06:12:00,37.0,23.0,-100.00,West,276,17.0,30.0,55,0.00,,,-99.99,,2013-01-20 11:12:00,
2013-01-20 06:22:00,35.0,23.0,-100.00,NNW,327,16.0,30.0,59,0.00,,,-99.99,,2013-01-20 11:22:00,
2013-01-20 06:33:00,35.0,25.0,-100.00,NW,326,12.0,30.0,63,0.00,,,-99.99,,2013-01-20 11:33:00,
2013-01-20 06:43:00,33.0,21.0,-100.00,West,271,12.0,30.0,60,0.00,,,-99.99,,2013-01-20 11:43:00,
2013-01-20 06:53:00,32.0,19.0,-100.00,West,279,17.0,30.0,59,0.00,,,-99.99,,2013-01-20 11:53:00,
2013-01-20 07:03:00,31.0,21.0,-100.00,WNW,283,14.0,30.0,62,0.00,,,-99.99,,2013-01-20 12:03:00,
2013-01-20 07:13:00,31.0,19.0,-100.00,WNW,302,15.0,30.0,62,0.00,,,-99.99,,2013-01-20 12:13:00,
2013-01-20 07:23:00,29.0,19.0,-100.00,NW,304,17.0,30.0,62,0.00,,,-99.99,,2013-01-20 12:23:00,
2013-01-20 07:33:00,30.0,19.0,-100.00,WNW,293,13.0,30.0,63,0.00,,,-99.99,,2013-01-20 12:33:00,
2013-01-20 07:43:00,29.0,18.0,-100.00,WNW,302,17.0,30.0,60,0.00,,,-99.99,,2013-01-20 12:43:00,
2013-01-20 07:53:00,29.0,19.0,-100.00,WSW,247,17.0,30.0,62,0.00,,,-99.99,,2013-01-20 12:53:00,
2013-01-20 08:03:00,29.0,18.0,-100.00,NW,326,17.0,30.0,62,0.00,,,-99.99,,2013-01-20 13:03:00,
2013-01-20 08:12:00,28.0,18.0,-100.00,WNW,289,17.0,30.0,60,0.00,,,-99.99,,2013-01-20 13:12:00,
2013-01-20 08:23:00,28.0,16.0,-100.00,WNW,282,17.0,30.0,59,0.00,,,-99.99,,2013-01-20 13:23:00,
2013-01-20 08:33:00,29.0,16.0,-100.00,WNW,295,19.0,30.0,56,0.00,,,-99.99,,2013-01-20 13:33:00,
2013-01-20 08:43:00,28.0,18.0,-100.00,NW,306,16.0,30.0,60,0.00,,,-99.99,,2013-01-20 13:43:00,
2013-01-20 08:52:00,27.0,16.0,-100.00,West,271,13.0,30.0,60,0.00,,,-99.99,,2013-01-20 13:52:00,
2013-01-20 09:03:00,28.0,16.0,-100.00,WNW,289,11.0,30.0,59,0.00,,,-99.99,,2013-01-20 14:03:00,
2013-01-20 09:12:00,27.0,18.0,-100.00,NW,316,12.0,30.0,62,0.00,,,-99.99,,2013-01-20 14:12:00,
2013-01-20 09:23:00,26.0,16.0,-100.00,NW,324,14.0,30.0,63,1.14,,,-99.99,,2013-01-20 14:23:00,
2013-01-20 09:33:00,25.0,14.0,-100.00,West,265,11.0,30.0,58,0.00,,,-99.99,,2013-01-20 14:33:00,
2013-01-20 09:43:00,25.0,14.0,-100.00,NW,316,14.0,30.0,58,0.00,,,-99.99,,2013-01-20 14:43:00,
2013-01-20 09:53:00,25.0,12.0,-100.00,WNW,293,14.0,30.0,55,0.00,,,-99.99,,2013-01-20 14:53:00,
2013-01-20 10:03:00,24.0,12.0,-100.00,WNW,285,16.0,30.0,55,1.14,,,-99.99,,2013-01-20 15:03:00,
2013-01-20 10:13:00,25.0,12.0,-100.00,North,0,9.0,30.0,55,0.00,,,-99.99,,2013-01-20 15:13:00,
2013-01-20 10:23:00,25.0,12.0,-100.00,NW,324,10.0,30.0,56,0.00,,,-99.99,,2013-01-20 15:23:00,
2013-01-20 10:33:00,25.0,12.0,-100.00,WNW,289,9.0,30.0,56,0.00,,,-99.99,,2013-01-20 15:33:00,
2013-01-20 10:43:00,24.0,12.0,-100.00,NW,323,9.0,30.0,59,2.83,,,-99.99,,2013-01-20 15:43:00,
2013-01-20 10:53:00,24.0,10.0,-100.00,NNW,330,12.0,30.0,55,0.00,,,-99.99,,2013-01-20 15:53:00,
2013-01-20 11:03:00,24.0,14.0,-100.00,NW,310,9.0,30.0,62,4.53,,,-99.99,,2013-01-20 16:03:00,
2013-01-20 11:12:00,24.0,12.0,-100.00,West,278,9.0,30.0,58,0.00,,,-99.99,,2013-01-20 16:12:00,
2013-01-20 11:23:00,24.0,10.0,-100.00,West,279,9.0,30.0,54,0.00,,,-99.99,,2013-01-20 16:23:00,
2013-01-20 11:33:00,24.0,12.0,-100.00,NNW,331,11.0,30.0,56,0.00,,,-99.99,,2013-01-20 16:33:00,
2013-01-20 11:43:00,24.0,12.0,-100.00,WNW,300,11.0,30.0,55,0.00,,,-99.99,,2013-01-20 16:43:00,
2013-01-20 11:52:00,24.0,12.0,-100.00,WNW,297,11.0,30.0,56,0.00,,,-99.99,,2013-01-20 16:52:00,
2013-01-20 12:03:00,23.0,10.0,-100.00,NW,326,11.0,30.0,56,0.00,,,-99.99,,2013-01-20 17:03:00,
2013-01-20 12:13:00,23.0,12.0,-100.00,West,259,10.0,30.0,62,0.00,,,-99.99,,2013-01-20 17:13:00,
2013-01-20 12:22:00,24.0,12.0,-100.00,NNW,333,8.0,30.0,58,0.00,,,-99.99,,2013-01-20 17:22:00,
2013-01-20 12:33:00,23.0,12.0,-100.00,West,273,11.0,30.0,62,0.00,,,-99.99,,2013-01-20 17:33:00,
2013-01-20 12:42:00,23.0,14.0,-100.00,West,266,11.0,30.0,63,1.14,,,-99.99,,2013-01-20 17:42:00,
2013-01-20 12:52:00,22.0,14.0,-100.00,WSW,248,11.0,30.0,69,0.00,,,-99.99,,2013-01-20 17:52:00,
2013-01-20 13:03:00,23.0,12.0,-100.00,NW,313,9.0,30.0,59,0.00,,,-99.99,,2013-01-20 18:03:00,
2013-01-20 13:13:00,24.0,12.0,-100.00,WNW,300,6.0,30.0,56,0.00,,,-99.99,,2013-01-20 18:13:00,
2013-01-20 13:23:00,23.0,12.0,-100.00,West,266,7.0,30.0,58,0.00,,,-99.99,,2013-01-20 18:23:00,
2013-01-20 13:33:00,23.0,12.0,-100.00,West,279,8.0,30.0,59,0.00,,,-99.99,,2013-01-20 18:33:00,
2013-01-20 13:43:00,23.0,10.0,-100.00,WNW,285,11.0,30.0,56,0.00,,,-99.99,,2013-01-20 18:43:00,
2013-01-20 13:53:00,23.0,10.0,-100.00,West,279,11.0,30.0,56,0.00,,,-99.99,,2013-01-20 18:53:00,
2013-01-20 14:03:00,23.0,10.0,-100.00,West,279,12.0,30.0,56,0.00,,,-99.99,,2013-01-20 19:03:00,
2013-01-20 14:12:00,23.0,12.0,-100.00,WNW,292,11.0,30.0,58,0.00,,,-99.99,,2013-01-20 19:12:00,
2013-01-20 14:23:00,23.0,10.0,-100.00,NNW,330,9.0,30.0,58,0.00,,,-99.99,,2013-01-20 19:23:00,
2013-01-20 14:33:00,24.0,10.0,-100.00,NNW,328,7.0,30.0,56,0.00,,,-99.99,,2013-01-20 19:33:00,
2013-01-20 14:43:00,23.0,12.0,-100.00,WNW,286,9.0,30.0,59,1.14,,,-99.99,,2013-01-20 19:43:00,
2013-01-20 14:52:00,23.0,12.0,-100.00,WNW,282,12.0,30.0,59,0.00,,,-99.99,,2013-01-20 19:52:00,
2013-01-20 15:03:00,23.0,10.0,-100.00,West,269,9.0,30.0,56,0.00,,,-99.99,,2013-01-20 20:03:00,
2013-01-20 15:12:00,23.0,12.0,-100.00,West,268,9.0,30.0,58,0.00,,,-99.99,,2013-01-20 20:12:00,
2013-01-20 15:23:00,23.0,10.0,-100.00,West,278,11.0,30.0,56,0.00,,,-99.99,,2013-01-20 20:23:00,
2013-01-20 15:33:00,23.0,10.0,-100.00,West,272,9.0,30.0,56,0.00,,,-99.99,,2013-01-20 20:33:00,
2013-01-20 15:42:00,24.0,12.0,-100.00,West,280,7.0,30.0,56,0.00,,,-99.99,,2013-01-20 20:42:00,
2013-01-20 15:53:00,23.0,12.0,-100.00,WNW,299,9.0,30.0,58,0.00,,,-99.99,,2013-01-20 20:53:00,
2013-01-20 16:04:00,23.0,12.0,-100.00,WNW,292,8.0,30.0,59,1.14,,,-99.99,,2013-01-20 21:04:00,
2013-01-20 16:13:00,23.0,12.0,-100.00,WNW,282,9.0,30.0,60,0.00,,,-99.99,,2013-01-20 21:13:00,
2013-01-20 16:23:00,24.0,12.0,-100.00,West,272,7.0,30.0,60,0.00,,,-99.99,,2013-01-20 21:23:00,
2013-01-20 16:33:00,23.0,12.0,-100.00,West,269,8.0,30.0,59,0.00,,,-99.99,,2013-01-20 21:33:00,
2013-01-20 16:43:00,23.0,12.0,-100.00,West,280,9.0,30.0,59,0.00,,,-99.99,,2013-01-20 21:43:00,
2013-01-20 16:53:00,23.0,12.0,-100.00,NNW,328,7.0,30.0,60,0.00,,,-99.99,,2013-01-20 21:53:00,
2013-01-20 17:03:00,24.0,14.0,-100.00,West,279,7.0,30.0,62,0.00,,,-99.99,,2013-01-20 22:03:00,
2013-01-20 17:13:00,24.0,14.0,-100.00,West,275,8.0,30.0,62,0.00,,,-99.99,,2013-01-20 22:13:00,
2013-01-20 17:23:00,24.0,14.0,-100.00,WNW,293,9.0,30.0,62,0.00,,,-99.99,,2013-01-20 22:23:00,
2013-01-20 17:33:00,24.0,14.0,-100.00,WSW,255,6.0,30.0,60,0.00,,,-99.99,,2013-01-20 22:33:00,
2013-01-20 17:43:00,24.0,12.0,-100.00,NW,314,11.0,30.0,59,0.00,,,-99.99,,2013-01-20 22:43:00,
2013-01-20 17:52:00,24.0,12.0,-100.00,WNW,288,9.0,30.0,59,0.00,,,-99.99,,2013-01-20 22:52:00,
2013-01-20 18:03:00,24.0,14.0,-100.00,West,265,8.0,30.0,60,0.00,,,-99.99,,2013-01-20 23:03:00,
2013-01-20 18:13:00,24.0,12.0,-100.00,West,262,10.0,30.0,59,0.00,,,-99.99,,2013-01-20 23:13:00,
2013-01-20 18:23:00,24.0,14.0,-100.00,WNW,296,9.0,30.0,63,1.14,,,-99.99,,2013-01-20 23:23:00,
2013-01-20 18:33:00,24.0,14.0,-100.00,WSW,249,6.0,30.0,63,2.83,,,-99.99,,2013-01-20 23:33:00,
2013-01-20 18:43:00,24.0,14.0,-100.00,West,259,7.0,30.0,60,0.00,,,-99.99,,2013-01-20 23:43:00,
2013-01-20 18:53:00,24.0,14.0,-100.00,West,273,7.0,30.0,62,1.14,,,-99.99,,2013-01-20 23:53:00,
2013-01-20 19:03:00,24.0,14.0,-100.00,WNW,293,6.0,30.0,60,0.00,,,-99.99,,2013-01-21 00:03:00,
2013-01-20 19:13:00,24.0,12.0,-100.00,SW,232,9.0,30.0,56,0.00,,,-99.99,,2013-01-21 00:13:00,
2013-01-20 19:23:00,25.0,12.0,-100.00,WNW,296,10.0,30.0,55,0.00,,,-99.99,,2013-01-21 00:23:00,
2013-01-20 19:33:00,25.0,12.0,-100.00,NW,310,9.0,30.0,56,0.00,,,-99.99,,2013-01-21 00:33:00,
2013-01-20 19:43:00,25.0,12.0,-100.00,WNW,293,9.0,30.0,58,0.00,,,-99.99,,2013-01-21 00:43:00,
2013-01-20 19:53:00,25.0,14.0,-100.00,West,275,8.0,30.0,60,1.14,,,-99.99,,2013-01-21 00:53:00,
2013-01-20 20:03:00,25.0,14.0,-100.00,West,262,7.0,30.0,60,0.00,,,-99.99,,2013-01-21 01:03:00,
2013-01-20 20:13:00,25.0,14.0,-100.00,SW,234,6.0,30.0,60,0.00,,,-99.99,,2013-01-21 01:13:00,
2013-01-20 20:23:00,25.0,14.0,-100.00,WNW,295,7.0,30.0,59,0.00,,,-99.99,,2013-01-21 01:23:00,
2013-01-20 20:33:00,25.0,14.0,-100.00,West,280,9.0,30.0,60,1.14,,,-99.99,,2013-01-21 01:33:00,
2013-01-20 20:43:00,25.0,14.0,-100.00,West,262,7.0,30.0,60,0.00,,,-99.99,,2013-01-21 01:43:00,
2013-01-20 20:53:00,25.0,14.0,-100.00,West,275,6.0,30.0,59,0.00,,,-99.99,,2013-01-21 01:53:00,
2013-01-20 21:03:00,25.0,14.0,-100.00,West,280,7.0,30.0,58,0.00,,,-99.99,,2013-01-21 02:03:00,
2013-01-20 21:13:00,25.0,14.0,-100.00,WNW,297,6.0,30.0,59,0.00,,,-99.99,,2013-01-21 02:13:00,
2013-01-20 21:23:00,25.0,12.0,-100.00,West,268,6.0,30.0,55,0.00,,,-99.99,,2013-01-21 02:23:00,
2013-01-20 21:33:00,25.0,12.0,-100.00,NW,314,6.0,30.0,56,0.00,,,-99.99,,2013-01-21 02:33:00,
2013-01-20 21:43:00,25.0,12.0,-100.00,WNW,288,6.0,30.0,56,0.00,,,-99.99,,2013-01-21 02:43:00,
2013-01-20 21:53:00,24.0,12.0,-100.00,NW,304,7.0,30.0,55,0.00,,,-99.99,,2013-01-21 02:53:00,
2013-01-20 22:03:00,24.0,12.0,-100.00,WSW,258,6.0,30.0,58,4.53,,,-99.99,,2013-01-21 03:03:00,
2013-01-20 22:13:00,24.0,12.0,-100.00,West,268,6.0,30.0,60,0.00,,,-99.99,,2013-01-21 03:13:00,
2013-01-20 22:23:00,24.0,14.0,-100.00,WNW,282,8.0,30.0,63,0.00,,,-99.99,,2013-01-21 03:23:00,
2013-01-20 22:33:00,24.0,14.0,-100.00,West,269,7.0,30.0,60,0.00,,,-99.99,,2013-01-21 03:33:00,
2013-01-20 22:43:00,24.0,12.0,-100.00,WNW,297,2.0,30.0,59,0.00,,,-99.99,,2013-01-21 03:43:00,
2013-01-20 22:53:00,24.0,14.0,-100.00,WNW,290,3.0,30.0,60,0.00,,,-99.99,,2013-01-21 03:53:00,
2013-01-20 23:03:00,24.0,12.0,-100.00,WSW,249,6.0,30.0,60,0.00,,,-99.99,,2013-01-21 04:03:00,
2013-01-20 23:13:00,23.0,14.0,-100.00,West,262,8.0,30.0,62,0.00,,,-99.99,,2013-01-21 04:13:00,
2013-01-20 23:23:00,23.0,14.0,-100.00,WNW,282,8.0,8.0,63,1.14,,,-99.99,,2013-01-21 04:23:00,
2013-01-20 23:33:00,23.0,12.0,-100.00,WNW,303,7.0,8.0,62,0.00,,,-99.99,,2013-01-21 04:33:00,
2013-01-20 23:43:00,23.0,14.0,-100.00,WNW,286,4.0,8.0,63,0.00,,,-99.99,,2013-01-21 04:43:00,
2013-01-20 23:53:00,23.0,14.0,-100.00,WNW,302,3.0,8.0,64,0.00,,,-99.99,,2013-01-21 04:53:00,